This is the latest recevied weather packets stored in our database for station/object N5UKZ-WX. If no packets are shown the sender has not sent any weather packets the latest 10 day(s).
| Time | Temp. | Humidity | Pressure | Rain* | Wind** | Luminosity | Snow |
|---|---|---|---|---|---|---|---|
| 1787691221 | 35.56° C | 55% | 1013.6 hPa | 0 mm | - | - | - |
| 1787690291 | 36.11° C | 56% | 1013.9 hPa | 0 mm | - | - | - |
| 1787689361 | 36.11° C | 57% | 1014.3 hPa | 0 mm | - | - | - |
| 1787689123 | 28.89° C | 85% | 1014.6 hPa | 0 mm | - | - | - |
| 1787689109 | 30° C | 77% | 1014.9 hPa | 0 mm | - | - | - |
| 1787689107 | 30° C | 74% | 1014.6 hPa | 0 mm | - | - | - |
| 1787689105 | 29.44° C | 72% | 1014.9 hPa | 0 mm | - | - | - |
| 1787689104 | 29.44° C | 70% | 1014.6 hPa | 0 mm | - | - | - |
| 1787689103 | 30° C | 69% | 1014.3 hPa | 0 mm | - | - | - |
| 1787688461 | 35.56° C | 58% | 1014.3 hPa | 0 mm | - | - | - |
| 1787687531 | 35.56° C | 57% | 1014.6 hPa | 0 mm | - | - | - |
| 1787686631 | 36.11° C | 57% | 1014.6 hPa | 0 mm | - | - | - |
| 1787685701 | 35.56° C | 60% | 1014.6 hPa | 0 mm | - | - | - |
| 1787684771 | 35° C | 63% | 1014.9 hPa | 0 mm | - | - | - |
| 1787683871 | 35° C | 62% | 1015.3 hPa | 0 mm | - | - | - |
| 1787682941 | 35° C | 62% | 1015.3 hPa | 0 mm | - | - | - |
| 1787682011 | 35.56° C | 63% | 1015.6 hPa | 0 mm | - | - | - |
| 1787681081 | 33.33° C | 67% | 1016 hPa | 0 mm | - | - | - |
| 1787680151 | 33.89° C | 70% | 1016.3 hPa | 0 mm | - | - | - |
| 1787679251 | 33.33° C | 75% | 1016.3 hPa | 0 mm | - | - | - |
| 1787678321 | 32.22° C | 80% | 1016.6 hPa | 0 mm | - | - | - |
| 1787677391 | 31.67° C | 84% | 1016.6 hPa | 0 mm | - | - | - |
| 1787676491 | 31.67° C | 88% | 1017 hPa | 0 mm | - | - | - |
| 1787675561 | 30° C | 96% | 1017.3 hPa | 0 mm | - | - | - |
| 1787674631 | 30.56° C | 100% | 1017.3 hPa | 0 mm | - | - | - |
* Rain latest hour (hover to see other rain measurements)
** Current wind speed in m/s (hover to see current wind gust speed)